Time;durP1;ratioP1;P1;durP2;ratioP2;P2;SDS_P1;SDS_P2;PMS_P1;PMS_P2;Temp;Humidity;BMP_temperature;BMP_pressure;BME280_temperature;BME280_humidity;BME280_pressure;Samples;Min_cycle;Max_cycle;Signal;HPM_P1;HPM_P2
2021/09/18 00:02:09;;;;;;;6.47;4.13;;;;;;;23.75;61.23;99992.84;4974079;28;20485;-71
2021/09/18 00:04:40;;;;;;;6.55;3.80;;;;;;;23.77;62.01;99999.69;4974141;28;20058;-71
2021/09/18 00:07:09;;;;;;;4.18;3.78;;;;;;;23.77;62.00;99988.31;4974032;28;20374;-71
2021/09/18 00:09:35;;;;;;;4.32;3.38;;;;;;;23.77;62.33;99993.22;4973712;28;20034;-72
2021/09/18 00:12:03;;;;;;;3.70;3.40;;;;;;;23.81;62.18;99999.56;4973761;28;20026;-70
2021/09/18 00:14:32;;;;;;;4.50;4.20;;;;;;;23.85;62.04;100005.91;4973893;28;20070;-70
2021/09/18 00:17:03;;;;;;;5.07;4.00;;;;;;;23.86;62.14;100003.84;4973693;28;20082;-73
2021/09/18 00:19:31;;;;;;;5.30;3.78;;;;;;;23.87;62.04;99997.72;4973610;28;20034;-71
2021/09/18 00:21:59;;;;;;;4.03;3.70;;;;;;;23.84;62.18;100004.31;4973514;28;20065;-71
2021/09/18 00:24:25;;;;;;;3.80;3.50;;;;;;;23.82;62.32;99989.78;4973599;28;20034;-72
2021/09/18 00:26:53;;;;;;;5.45;4.15;;;;;;;23.78;62.31;100006.94;4973484;28;20053;-72
2021/09/18 00:29:22;;;;;;;4.63;3.80;;;;;;;23.74;62.91;99994.13;4974105;28;20544;-72
2021/09/18 00:31:52;;;;;;;4.60;4.05;;;;;;;23.71;63.19;99995.03;4977219;28;20489;-72
2021/09/18 00:34:22;;;;;;;7.25;3.60;;;;;;;23.66;63.62;99998.47;4976662;28;20035;-70
2021/09/18 00:36:51;;;;;;;8.40;3.95;;;;;;;23.69;63.16;99997.53;4977143;28;20385;-72
2021/09/18 00:39:20;;;;;;;8.32;3.88;;;;;;;23.69;63.54;100004.00;4977021;28;20034;-71
2021/09/18 00:41:46;;;;;;;4.32;3.85;;;;;;;23.74;63.77;100000.59;4976781;28;20121;-73
2021/09/18 00:44:19;;;;;;;3.72;3.42;;;;;;;23.85;63.83;100005.09;4976573;28;20121;-71
2021/09/18 00:46:52;;;;;;;;;;;;;;;23.79;63.83;100002.06;4977150;28;20148;-72
2021/09/18 00:49:22;;;;;;;4.60;4.20;;;;;;;23.88;63.70;100001.38;4976641;28;19918;-73
2021/09/18 00:51:50;;;;;;;4.32;3.65;;;;;;;23.76;64.00;99997.31;4976994;28;20473;-72
2021/09/18 00:54:18;;;;;;;4.75;3.95;;;;;;;23.70;63.90;100007.63;4976893;28;20076;-72
2021/09/18 00:56:47;;;;;;;9.00;4.10;;;;;;;23.83;63.82;100002.75;4976522;28;20041;-71
2021/09/18 00:59:13;;;;;;;4.13;3.70;;;;;;;23.76;64.16;100000.16;4976946;28;20362;-73
2021/09/18 01:01:41;;;;;;;4.10;3.72;;;;;;;23.67;64.29;99986.63;4976638;28;20042;-71
2021/09/18 01:04:11;;;;;;;4.30;3.90;;;;;;;23.73;64.74;99996.16;4977288;28;20037;-72
2021/09/18 01:06:43;;;;;;;6.93;4.05;;;;;;;23.58;65.49;100003.53;4993554;28;20113;-73
2021/09/18 01:09:09;;;;;;;3.45;3.20;;;;;;;23.52;66.10;99997.63;4976252;28;20023;-73
2021/09/18 01:11:37;;;;;;;4.43;4.03;;;;;;;23.48;66.56;99987.66;4976339;28;20167;-72
2021/09/18 01:14:03;;;;;;;4.28;3.85;;;;;;;23.52;66.47;99986.28;4976578;28;20026;-71
2021/09/18 01:16:34;;;;;;;5.65;4.32;;;;;;;23.57;66.05;99984.91;4976247;28;20031;-70
2021/09/18 01:19:03;;;;;;;4.18;3.88;;;;;;;23.55;66.28;99993.13;4977538;28;20108;-73
2021/09/18 01:21:31;;;;;;;4.35;3.40;;;;;;;23.46;66.50;99990.16;5078312;28;20442;-71
2021/09/18 01:24:02;;;;;;;5.25;3.65;;;;;;;23.42;66.63;99983.81;4976402;28;20139;-72
2021/09/18 01:26:33;;;;;;;5.70;4.07;;;;;;;23.42;66.60;99978.13;4975871;28;20057;-72
2021/09/18 01:28:59;;;;;;;5.10;4.18;;;;;;;23.46;66.44;99985.28;4975994;28;20085;-72
2021/09/18 01:31:30;;;;;;;4.20;3.92;;;;;;;23.51;66.21;99970.50;4975690;28;20045;-72
2021/09/18 01:33:59;;;;;;;4.70;4.07;;;;;;;23.42;66.58;99972.44;4975884;28;20118;-70
2021/09/18 01:36:29;;;;;;;6.05;3.75;;;;;;;23.32;66.76;99963.03;4976517;28;20436;-71
2021/09/18 01:38:58;;;;;;;4.75;4.30;;;;;;;23.27;66.82;99964.38;4976342;28;20034;-69
2021/09/18 01:41:33;;;;;;;4.50;4.20;;;;;;;23.26;66.83;99964.84;4975127;28;20107;-70
2021/09/18 01:44:01;;;;;;;3.95;3.65;;;;;;;23.30;66.99;99968.38;4975822;28;20030;-70
2021/09/18 01:46:29;;;;;;;4.65;4.25;;;;;;;23.15;67.48;99964.41;4976028;28;20139;-69
2021/09/18 01:48:57;;;;;;;4.55;3.92;;;;;;;23.18;67.43;99958.63;4976065;28;20038;-71
2021/09/18 01:51:24;;;;;;;4.25;3.95;;;;;;;23.08;68.25;99956.13;4975387;28;20054;-70
2021/09/18 01:53:50;;;;;;;4.68;4.28;;;;;;;23.06;68.15;99956.56;4976393;28;20053;-70
2021/09/18 01:56:18;;;;;;;7.43;4.50;;;;;;;23.00;68.48;99961.22;4975467;28;20023;-70
2021/09/18 01:58:49;;;;;;;4.85;3.85;;;;;;;22.98;68.80;99970.19;4975503;28;20125;-69
2021/09/18 02:01:21;;;;;;;5.55;4.75;;;;;;;22.98;68.78;99978.69;4975760;28;20034;-70
2021/09/18 02:03:49;;;;;;;4.75;3.88;;;;;;;23.10;68.22;99984.84;4975960;28;20384;-70
2021/09/18 02:06:17;;;;;;;5.60;4.53;;;;;;;23.00;68.61;99993.22;4993005;28;20053;-71
2021/09/18 02:08:48;;;;;;;4.95;4.10;;;;;;;23.02;68.55;100000.50;4975656;28;20030;-69
2021/09/18 02:11:19;;;;;;;5.03;4.07;;;;;;;22.93;69.13;100004.00;4975479;28;20026;-71
2021/09/18 02:13:50;;;;;;;7.85;5.93;;;;;;;22.94;69.53;100009.22;4975250;28;20041;-71
2021/09/18 02:16:21;;;;;;;39.35;31.90;;;;;;;22.89;69.42;99998.44;5077014;28;20027;-70
2021/09/18 02:18:50;;;;;;;59.38;47.88;;;;;;;22.87;70.05;100009.41;4975733;28;20038;-70
2021/09/18 02:21:20;;;;;;;54.97;46.55;;;;;;;22.86;69.92;100005.00;4975215;28;20086;-69
2021/09/18 02:23:48;;;;;;;57.97;47.05;;;;;;;22.87;69.76;100006.56;4975236;28;20045;-70
2021/09/18 02:26:18;;;;;;;43.80;36.47;;;;;;;22.85;70.40;100003.41;4975023;28;20034;-70
2021/09/18 02:28:48;;;;;;;29.58;26.23;;;;;;;22.84;70.98;99996.13;4972363;28;20061;-70
2021/09/18 02:31:16;;;;;;;21.33;18.52;;;;;;;22.87;70.31;100000.13;4974777;28;20037;-70
2021/09/18 02:33:45;;;;;;;17.27;15.48;;;;;;;22.84;70.33;99998.97;4974991;28;20034;-70
2021/09/18 02:36:13;;;;;;;15.00;13.15;;;;;;;22.85;70.27;99997.75;4975169;28;20050;-71
2021/09/18 02:38:41;;;;;;;15.75;14.13;;;;;;;22.87;70.30;100000.13;4974905;28;20038;-71
2021/09/18 02:41:10;;;;;;;11.40;10.23;;;;;;;22.89;70.44;100000.47;4975096;28;20481;-70
2021/09/18 02:43:37;;;;;;;8.10;7.32;;;;;;;22.91;70.48;99998.78;4975116;28;20035;-70
2021/09/18 02:46:05;;;;;;;5.28;4.78;;;;;;;22.93;69.44;100001.97;4974989;28;20109;-71
2021/09/18 02:48:37;;;;;;;8.40;7.60;;;;;;;22.87;69.70;99994.44;4974998;28;20529;-70
2021/09/18 02:51:02;;;;;;;11.48;10.48;;;;;;;22.84;70.09;99993.28;4974672;28;20033;-69
2021/09/18 02:53:30;;;;;;;10.65;9.68;;;;;;;22.78;70.24;99986.59;4974521;28;20121;-70
2021/09/18 02:56:02;;;;;;;10.77;9.68;;;;;;;22.75;70.28;99993.19;4974677;28;20034;-70
2021/09/18 02:58:30;;;;;;;8.25;7.43;;;;;;;22.68;70.61;99987.69;4975120;28;20374;-70
2021/09/18 03:00:58;;;;;;;11.98;10.75;;;;;;;22.63;70.93;99985.41;4975099;28;20022;-70
2021/09/18 03:03:29;;;;;;;11.32;9.73;;;;;;;22.68;70.46;99976.34;4974932;28;20053;-71
2021/09/18 03:05:57;;;;;;;18.73;16.83;;;;;;;22.73;70.64;99985.09;4974661;28;20037;-70
2021/09/18 03:08:28;;;;;;;19.02;17.00;;;;;;;22.68;70.73;99984.88;4991780;28;20092;-70
2021/09/18 03:10:56;;;;;;;22.33;19.92;;;;;;;22.62;71.06;99986.69;4974573;28;20081;-69
2021/09/18 03:13:27;;;;;;;33.70;28.88;;;;;;;22.57;71.10;99981.56;4974836;28;20381;-70
2021/09/18 03:15:53;;;;;;;26.77;24.33;;;;;;;22.58;71.30;99980.31;4974462;28;20533;-69
2021/09/18 03:18:24;;;;;;;30.73;27.85;;;;;;;22.61;71.30;99982.25;4974220;28;20125;-71
2021/09/18 03:20:55;;;;;;;14.02;12.63;;;;;;;22.75;70.71;99987.50;4974201;28;20045;-69
2021/09/18 03:23:26;;;;;;;8.65;7.88;;;;;;;22.68;71.00;99982.81;4974561;28;20451;-71
2021/09/18 03:25:51;;;;;;;7.00;6.30;;;;;;;22.63;71.17;99979.75;4974502;28;20049;-69
2021/09/18 03:28:23;;;;;;;6.50;5.90;;;;;;;22.62;71.32;99978.16;4974631;28;20453;-71
2021/09/18 03:30:54;;;;;;;7.15;6.55;;;;;;;22.56;71.26;99980.75;4973644;28;20064;-69
2021/09/18 03:33:22;;;;;;;16.35;14.65;;;;;;;22.55;71.55;99992.56;4974237;28;20481;-70
2021/09/18 03:35:51;;;;;;;10.30;8.65;;;;;;;22.58;71.63;99983.13;4974279;28;20504;-70
2021/09/18 03:38:17;;;;;;;9.88;7.47;;;;;;;22.56;71.39;99980.75;4973905;28;20031;-69
2021/09/18 03:40:48;;;;;;;8.50;7.13;;;;;;;22.51;71.70;99977.69;4991697;28;20053;-69
2021/09/18 03:43:19;;;;;;;10.98;9.60;;;;;;;22.51;71.99;99981.31;4974508;28;20058;-70
2021/09/18 03:45:51;;;;;;;25.77;21.58;;;;;;;22.55;71.99;99993.34;4974098;28;20038;-71
2021/09/18 03:48:20;;;;;;;14.95;13.38;;;;;;;22.53;71.81;99986.53;4974535;28;20383;-70
2021/09/18 03:50:48;;;;;;;32.30;28.63;;;;;;;22.53;71.94;99981.69;4974099;28;20061;-70
2021/09/18 03:53:14;;;;;;;38.63;31.27;;;;;;;22.49;71.70;99981.78;4973870;28;20050;-71
2021/09/18 03:55:42;;;;;;;37.53;33.20;;;;;;;22.47;72.29;99987.09;4973713;28;20060;-69
2021/09/18 03:58:10;;;;;;;42.65;38.22;;;;;;;22.44;72.50;99982.31;4974464;28;20026;-71
2021/09/18 04:00:36;;;;;;;33.42;29.95;;;;;;;22.46;71.91;99991.16;4973986;28;20041;-69
2021/09/18 04:03:07;;;;;;;17.38;15.38;;;;;;;22.60;71.40;99989.97;4974152;28;20493;-69
2021/09/18 04:05:38;;;;;;;12.60;11.30;;;;;;;22.49;72.18;99986.66;4976162;28;20030;-70
2021/09/18 04:08:08;;;;;;;10.13;8.10;;;;;;;22.43;72.83;99989.25;4977226;28;20080;-70
2021/09/18 04:10:37;;;;;;;7.97;6.30;;;;;;;22.41;73.11;99991.72;4977123;28;20500;-70
2021/09/18 04:13:11;;;;;;;6.95;5.90;;;;;;;22.42;72.67;99993.31;4977291;28;20099;-70
2021/09/18 04:15:41;;;;;;;9.93;5.65;;;;;;;22.42;72.50;99996.13;4977062;28;20172;-69
2021/09/18 04:18:10;;;;;;;7.00;4.65;;;;;;;22.38;73.24;99997.50;4994262;28;20026;-69
2021/09/18 04:20:35;;;;;;;9.15;5.35;;;;;;;22.32;73.27;99999.28;4976916;28;20033;-69
2021/09/18 04:23:04;;;;;;;5.30;4.90;;;;;;;22.25;73.45;100000.28;4976830;28;20027;-69
2021/09/18 04:25:32;;;;;;;5.47;4.97;;;;;;;22.29;73.19;99994.50;4977102;28;20080;-70
2021/09/18 04:28:01;;;;;;;7.40;5.22;;;;;;;22.24;73.87;99998.69;4976609;28;20034;-71
2021/09/18 04:30:32;;;;;;;6.55;5.57;;;;;;;22.28;73.36;100007.09;4976616;28;20489;-70
2021/09/18 04:33:03;;;;;;;8.88;5.15;;;;;;;22.21;73.44;100019.41;4976708;28;20037;-69
2021/09/18 04:35:32;;;;;;;10.23;5.55;;;;;;;22.30;72.93;100030.91;4976698;28;20031;-69
2021/09/18 04:38:00;;;;;;;7.50;4.82;;;;;;;22.34;72.70;100034.44;4976741;28;20121;-70
2021/09/18 04:40:31;;;;;;;8.73;5.43;;;;;;;22.32;72.69;100045.44;4976680;28;20045;-70
2021/09/18 04:43:02;;;;;;;6.10;5.10;;;;;;;22.26;73.17;100047.19;4976663;28;20080;-70
2021/09/18 04:45:30;;;;;;;5.65;5.07;;;;;;;22.28;72.92;100052.44;4976614;28;20030;-69
2021/09/18 04:47:58;;;;;;;8.35;5.70;;;;;;;22.26;72.88;100064.22;4977218;28;20031;-69
2021/09/18 04:50:23;;;;;;;5.85;5.25;;;;;;;22.28;73.24;100070.25;4976626;28;20027;-70
2021/09/18 04:52:52;;;;;;;6.53;5.13;;;;;;;22.27;73.76;100059.34;4976487;28;20029;-70
2021/09/18 04:55:20;;;;;;;8.70;5.05;;;;;;;22.35;72.90;100058.69;4976442;28;20113;-69
2021/09/18 04:57:51;;;;;;;6.80;5.90;;;;;;;22.40;72.75;100063.03;4977044;28;20467;-69
2021/09/18 05:00:16;;;;;;;6.22;5.55;;;;;;;22.42;72.57;100060.53;4976420;28;20038;-70
2021/09/18 05:02:44;;;;;;;6.38;5.40;;;;;;;22.46;72.19;100056.38;4976482;28;20041;-70
2021/09/18 05:05:15;;;;;;;6.57;5.55;;;;;;;22.51;72.22;100063.53;4976262;28;20121;-69
2021/09/18 05:07:40;;;;;;;7.57;5.00;;;;;;;22.54;72.80;100059.03;4976247;28;20030;-69
2021/09/18 05:10:09;;;;;;;5.70;5.13;;;;;;;22.60;72.34;100062.91;4976136;28;20042;-70
2021/09/18 05:12:37;;;;;;;7.85;5.63;;;;;;;22.63;72.67;100059.16;4976741;28;20442;-69
2021/09/18 05:15:08;;;;;;;5.93;5.32;;;;;;;22.74;71.61;100051.94;4976206;28;20083;-70
2021/09/18 05:17:39;;;;;;;12.95;5.78;;;;;;;22.74;71.82;100053.97;4975667;28;20042;-70
2021/09/18 05:20:10;;;;;;;8.32;5.72;;;;;;;22.75;72.51;100055.56;4976175;28;20085;-70
2021/09/18 05:22:41;;;;;;;8.80;5.90;;;;;;;22.77;72.33;100053.06;4975966;28;20034;-70
2021/09/18 05:25:10;;;;;;;8.50;5.65;;;;;;;22.79;72.54;100055.44;4976183;28;20029;-70
2021/09/18 05:27:44;;;;;;;6.60;5.20;;;;;;;22.82;72.21;100055.34;4975803;28;20092;-71
2021/09/18 05:30:10;;;;;;;;;;;;;;;22.87;71.63;100051.97;4993304;28;20477;-71
2021/09/18 05:32:41;;;;;;;9.07;5.38;;;;;;;22.94;71.56;100046.09;4976375;28;19925;-71
2021/09/18 05:35:07;;;;;;;8.65;5.47;;;;;;;23.14;70.50;100053.63;4975667;28;20027;-70
2021/09/18 05:37:38;;;;;;;7.90;5.05;;;;;;;23.35;69.78;100064.31;4976211;28;20041;-69
2021/09/18 05:40:12;;;;;;;7.25;5.32;;;;;;;23.34;69.93;100050.59;4975718;28;20054;-70
2021/09/18 05:42:43;;;;;;;9.80;5.80;;;;;;;23.43;69.95;100062.84;4975496;28;20066;-70
2021/09/18 05:45:14;;;;;;;7.53;5.13;;;;;;;23.59;69.36;100053.41;4976347;28;20049;-69
2021/09/18 05:47:40;;;;;;;8.43;5.38;;;;;;;23.99;67.62;100050.88;4975677;28;20399;-69
2021/09/18 05:50:08;;;;;;;7.22;5.45;;;;;;;24.42;66.47;100060.78;4975653;28;20030;-71
2021/09/18 05:52:40;;;;;;;10.82;7.60;;;;;;;24.85;64.22;100059.19;4975692;28;20068;-70
2021/09/18 05:55:11;;;;;;;7.22;6.63;;;;;;;25.33;63.29;100060.59;4975490;28;20126;-71
2021/09/18 05:57:42;;;;;;;6.60;5.88;;;;;;;25.83;61.36;100058.63;4975327;28;20026;-71
2021/09/18 06:00:10;;;;;;;11.15;5.50;;;;;;;26.25;59.75;100057.25;4974792;28;20041;-70
2021/09/18 06:02:36;;;;;;;6.05;4.70;;;;;;;26.59;58.07;100047.63;4975174;28;20117;-70
2021/09/18 06:05:04;;;;;;;9.25;4.88;;;;;;;26.95;56.96;100061.03;4975560;28;20138;-71
2021/09/18 06:07:32;;;;;;;7.80;5.40;;;;;;;26.84;57.07;100064.38;4975606;28;20042;-71
2021/09/18 06:10:04;;;;;;;9.65;4.93;;;;;;;26.78;57.08;100074.84;4975173;28;20420;-70
2021/09/18 06:12:35;;;;;;;5.65;3.97;;;;;;;26.76;56.70;100068.06;4976319;28;20499;-72
2021/09/18 06:15:03;;;;;;;7.95;4.32;;;;;;;27.07;56.07;100074.38;4974959;28;20124;-70
2021/09/18 06:17:31;;;;;;;5.15;4.53;;;;;;;26.88;56.61;100072.78;4992258;28;20040;-69
2021/09/18 06:20:02;;;;;;;6.97;4.43;;;;;;;27.17;55.97;100071.50;4975099;28;20080;-71
2021/09/18 06:22:30;;;;;;;7.32;4.32;;;;;;;27.07;56.23;100074.38;4974887;28;20022;-69
2021/09/18 06:24:55;;;;;;;4.97;4.43;;;;;;;27.56;55.42;100076.09;4975578;28;20168;-70
2021/09/18 06:27:26;;;;;;;6.63;3.97;;;;;;;27.92;54.24;100082.97;4975006;28;20521;-70
2021/09/18 06:29:51;;;;;;;4.63;3.78;;;;;;;28.40;52.99;100080.13;4974655;28;20457;-69
2021/09/18 06:32:19;;;;;;;8.90;4.18;;;;;;;28.89;51.61;100073.00;4974748;28;20060;-69
2021/09/18 06:34:47;;;;;;;6.55;4.25;;;;;;;29.37;49.95;100078.56;4974752;28;20039;-69
2021/09/18 06:37:15;;;;;;;6.07;3.88;;;;;;;29.61;48.94;100081.31;5076367;28;20076;-70
2021/09/18 06:39:43;;;;;;;5.82;4.25;;;;;;;29.92;48.31;100075.00;4992445;28;20041;-69
2021/09/18 06:42:14;;;;;;;5.53;3.78;;;;;;;30.36;47.09;100068.31;4974783;28;20031;-69
2021/09/18 06:44:42;;;;;;;4.32;3.85;;;;;;;30.82;46.13;100073.31;4974994;28;20117;-70
2021/09/18 06:47:13;;;;;;;6.10;3.65;;;;;;;31.23;45.35;100076.84;4974468;28;20031;-70
2021/09/18 06:49:44;;;;;;;5.40;3.85;;;;;;;30.96;45.60;100078.16;4974604;28;20465;-70
2021/09/18 06:52:14;;;;;;;4.03;3.63;;;;;;;30.95;46.06;100073.72;4974815;28;20105;-70
2021/09/18 06:54:41;;;;;;;6.57;3.78;;;;;;;30.82;45.54;100076.97;4974475;28;20101;-71
2021/09/18 06:57:11;;;;;;;4.50;3.42;;;;;;;31.10;44.55;100068.63;4974613;28;20033;-70
2021/09/18 06:59:42;;;;;;;8.23;3.95;;;;;;;31.03;44.34;100077.69;4974479;28;20041;-71
2021/09/18 07:02:10;;;;;;;5.90;3.72;;;;;;;30.39;46.77;100067.31;4974677;28;20095;-69
2021/09/18 07:04:39;;;;;;;9.82;3.83;;;;;;;30.84;45.97;100080.13;4974357;28;20035;-71
2021/09/18 07:07:07;;;;;;;8.18;3.78;;;;;;;30.30;46.89;100071.09;4974215;28;20075;-71
2021/09/18 07:09:35;;;;;;;4.38;3.70;;;;;;;29.87;48.33;100078.56;4974156;28;20050;-69
2021/09/18 07:12:04;;;;;;;5.43;4.22;;;;;;;29.97;48.31;100072.22;4973902;28;20033;-69
2021/09/18 07:14:30;;;;;;;4.78;3.92;;;;;;;29.78;48.90;100070.91;4974547;28;20034;-70
2021/09/18 07:16:58;;;;;;;4.57;4.10;;;;;;;30.09;47.76;100067.41;4974074;28;20449;-71
2021/09/18 07:19:30;;;;;;;4.75;4.20;;;;;;;30.16;47.65;100072.78;4974132;28;20038;-69
2021/09/18 07:21:56;;;;;;;4.55;3.80;;;;;;;30.23;47.56;100074.41;4974130;28;20109;-70
2021/09/18 07:24:24;;;;;;;4.68;4.00;;;;;;;30.39;47.22;100076.72;4974077;28;20092;-70
2021/09/18 07:26:55;;;;;;;8.25;4.30;;;;;;;30.64;47.01;100078.06;4974082;28;20026;-71
2021/09/18 07:29:26;;;;;;;6.40;4.47;;;;;;;30.52;46.89;100076.31;4973828;28;20500;-71
2021/09/18 07:31:56;;;;;;;5.93;4.60;;;;;;;30.00;48.38;100079.03;4974263;28;20117;-70
2021/09/18 07:34:22;;;;;;;7.47;4.90;;;;;;;29.95;48.61;100080.53;4973725;28;20034;-72
2021/09/18 07:36:48;;;;;;;6.05;4.97;;;;;;;30.69;47.20;100076.53;4973645;28;20026;-70
2021/09/18 07:39:18;;;;;;;5.22;3.80;;;;;;;30.47;47.93;100074.22;4972919;28;20034;-71
2021/09/18 07:41:46;;;;;;;6.55;4.00;;;;;;;31.08;46.61;100076.97;4973593;28;20121;-71
2021/09/18 07:44:18;;;;;;;10.23;4.70;;;;;;;31.15;46.42;100076.50;4973502;28;20034;-72
2021/09/18 07:46:49;;;;;;;6.28;4.78;;;;;;;31.08;46.84;100082.72;4973821;28;20022;-71
2021/09/18 07:49:18;;;;;;;5.85;4.07;;;;;;;31.49;46.67;100082.59;4973940;28;20083;-71
2021/09/18 07:51:44;;;;;;;5.97;4.45;;;;;;;31.35;47.66;100092.13;4973852;28;20025;-70
2021/09/18 07:54:10;;;;;;;8.20;4.72;;;;;;;31.04;48.87;100082.13;4973754;28;20103;-71
2021/09/18 07:56:40;;;;;;;7.05;4.13;;;;;;;31.47;47.65;100088.03;4973815;28;20058;-72
2021/09/18 07:59:09;;;;;;;9.20;4.55;;;;;;;31.22;48.08;100087.56;5075222;28;20034;-72
2021/09/18 08:01:39;;;;;;;10.07;5.05;;;;;;;31.54;47.95;100091.25;4973463;28;20031;-71
2021/09/18 08:04:07;;;;;;;11.82;5.28;;;;;;;31.99;46.62;100093.66;4991117;28;20038;-69
2021/09/18 08:06:40;;;;;;;10.23;5.20;;;;;;;31.87;46.24;100095.69;4973981;28;20476;-71
2021/09/18 08:09:06;;;;;;;11.13;5.15;;;;;;;31.06;48.09;100102.56;4973807;28;20040;-71
2021/09/18 08:11:33;;;;;;;8.80;4.88;;;;;;;30.80;48.91;100096.00;4974398;28;20026;-70
2021/09/18 08:13:59;;;;;;;7.50;4.95;;;;;;;30.62;49.24;100089.25;4973939;28;20038;-71
2021/09/18 08:16:25;;;;;;;6.90;4.70;;;;;;;30.89;48.59;100090.09;4973324;28;20045;-71
2021/09/18 08:18:51;;;;;;;8.68;4.30;;;;;;;31.37;47.22;100092.41;4973269;28;20030;-70
2021/09/18 08:21:23;;;;;;;7.75;5.63;;;;;;;30.71;49.16;100094.88;4973351;28;20034;-70
2021/09/18 08:23:54;;;;;;;7.25;4.43;;;;;;;30.56;49.71;100094.13;4973575;28;20061;-71
2021/09/18 08:26:27;;;;;;;13.55;5.40;;;;;;;30.26;49.72;100082.81;4973300;28;20034;-72
2021/09/18 08:28:57;;;;;;;6.53;5.22;;;;;;;30.05;50.73;100094.75;4972678;28;20118;-71
2021/09/18 08:31:28;;;;;;;11.38;5.75;;;;;;;30.66;48.27;100098.44;4990555;28;20084;-72
2021/09/18 08:33:56;;;;;;;10.65;6.15;;;;;;;30.63;48.66;100107.25;4973545;28;20052;-70
2021/09/18 08:36:29;;;;;;;9.55;5.00;;;;;;;31.21;47.26;100108.94;4972795;28;20026;-69
2021/09/18 08:39:00;;;;;;;9.43;5.10;;;;;;;31.26;46.42;100107.47;4972865;28;20030;-71
2021/09/18 08:41:26;;;;;;;8.02;4.72;;;;;;;31.76;45.51;100110.75;4972729;28;20100;-71
2021/09/18 08:43:55;;;;;;;9.23;4.57;;;;;;;31.60;45.43;100105.66;4972806;28;20042;-70
2021/09/18 08:46:24;;;;;;;8.27;4.93;;;;;;;31.72;45.60;100118.03;4972802;28;20022;-70
2021/09/18 08:48:54;;;;;;;6.35;4.13;;;;;;;31.91;44.79;100119.25;5040823;28;20046;-72
2021/09/18 08:51:25;;;;;;;10.27;4.45;;;;;;;32.10;44.70;100113.88;4974972;28;20026;-73
2021/09/18 08:53:55;;;;;;;10.55;4.70;;;;;;;32.26;42.38;100115.28;4976129;28;20397;-69
2021/09/18 08:56:23;;;;;;;8.32;4.10;;;;;;;32.15;42.05;100107.38;4975573;28;20018;-73
2021/09/18 08:58:55;;;;;;;6.20;4.25;;;;;;;33.54;39.59;100105.44;4975915;28;20457;-69
2021/09/18 09:01:23;;;;;;;5.68;3.70;;;;;;;33.62;38.88;100112.28;4975566;28;20037;-74
2021/09/18 09:03:56;;;;;;;13.30;4.20;;;;;;;32.86;40.78;100110.28;4976078;28;20035;-72
2021/09/18 09:06:38;;;;;;;6.82;3.75;;;;;;;33.14;41.23;100103.84;4960152;28;20041;-73
2021/09/18 09:09:07;;;;;;;7.43;3.80;;;;;;;33.98;39.63;100109.63;4976440;28;20456;-72
2021/09/18 09:11:32;;;;;;;10.00;4.00;;;;;;;32.76;40.91;100104.00;4976437;28;20384;-72
2021/09/18 09:14:10;;;;;;;9.05;4.20;;;;;;;32.91;40.75;100106.66;4976126;28;20035;-72
2021/09/18 09:16:57;;;;;;;5.75;4.22;;;;;;;33.65;39.01;100105.44;4975716;28;20034;-69
2021/09/18 09:19:29;;;;;;;9.68;4.57;;;;;;;33.86;38.12;100111.72;4976318;28;20039;-72
2021/09/18 09:21:59;;;;;;;10.07;3.80;;;;;;;32.99;38.32;100106.97;4975208;28;20033;-73
2021/09/18 09:24:30;;;;;;;4.85;2.80;;;;;;;33.23;36.58;100110.13;4975449;28;20277;-72
2021/09/18 09:27:14;;;;;;;5.50;3.50;;;;;;;33.69;35.86;100100.19;4975908;28;20027;-72
2021/09/18 09:29:49;;;;;;;6.88;4.38;;;;;;;33.10;36.98;100075.28;4992687;28;20121;-70
2021/09/18 09:32:41;;;;;;;6.53;3.80;;;;;;;33.43;37.68;100103.34;4975300;28;20037;-69
2021/09/18 09:35:09;;;;;;;7.82;4.15;;;;;;;33.31;38.61;100104.63;4993063;28;20402;-71
2021/09/18 09:37:35;;;;;;;6.22;4.13;;;;;;;33.06;37.94;100106.44;4992128;28;20026;-71
2021/09/18 09:40:08;;;;;;;5.32;2.90;;;;;;;32.25;36.62;100097.22;4975092;28;20596;-70
2021/09/18 09:42:43;;;;;;;5.35;2.95;;;;;;;32.96;37.51;100096.47;4975776;28;20026;-70
2021/09/18 09:45:13;;;;;;;6.00;3.20;;;;;;;34.00;36.23;100102.03;4975337;28;20469;-71
2021/09/18 09:47:40;;;;;;;9.27;3.80;;;;;;;33.92;35.99;100112.47;4974906;28;20030;-73
2021/09/18 09:50:10;;;;;;;7.13;3.47;;;;;;;34.23;35.54;100102.72;4975504;28;20045;-69
2021/09/18 09:52:38;;;;;;;7.18;3.45;;;;;;;34.46;34.50;100102.66;4993273;28;20419;-71
2021/09/18 09:55:13;;;;;;;6.05;2.97;;;;;;;34.49;34.90;100090.06;4959287;28;20034;-71
2021/09/18 09:57:44;;;;;;;5.88;3.28;;;;;;;34.33;33.59;100097.44;4975648;28;20041;-70
2021/09/18 10:00:15;;;;;;;10.88;4.40;;;;;;;34.50;34.84;100095.31;4975567;28;20073;-70
2021/09/18 10:02:47;;;;;;;5.65;2.85;;;;;;;35.10;32.88;100088.94;4974380;28;20549;-70
2021/09/18 10:05:17;;;;;;;8.20;3.20;;;;;;;34.59;33.84;100092.13;4975143;28;20072;-71
2021/09/18 10:07:47;;;;;;;8.70;4.63;;;;;;;35.95;31.43;100090.59;4975189;28;20030;-71
2021/09/18 10:10:16;;;;;;;16.23;5.45;;;;;;;35.56;31.59;100098.84;4975072;28;20121;-70
2021/09/18 10:12:43;;;;;;;11.57;5.22;;;;;;;35.62;31.15;100096.69;4975360;28;20061;-71
2021/09/18 10:15:14;;;;;;;9.05;3.25;;;;;;;34.94;32.74;100096.41;4975284;28;20041;-71
2021/09/18 10:17:43;;;;;;;4.68;2.65;;;;;;;34.84;33.95;100084.38;4976187;28;20034;-70
2021/09/18 10:23:13;;;;;;;8.65;3.80;;;;;;;35.03;33.90;100098.19;4992485;28;20035;-72
2021/09/18 10:23:14;;;;;;;8.85;3.30;;;;;;;34.69;34.01;100089.72;4992378;28;20108;-70
2021/09/18 10:25:45;;;;;;;5.22;2.80;;;;;;;35.17;33.71;100085.47;4974769;28;20040;-72
2021/09/18 10:28:18;;;;;;;5.03;3.00;;;;;;;34.81;33.99;100081.75;4975748;28;20544;-72
2021/09/18 10:30:54;;;;;;;6.57;3.08;;;;;;;35.46;32.65;100077.38;4974628;28;20046;-72
2021/09/18 10:33:35;;;;;;;6.53;2.70;;;;;;;35.55;31.91;100074.16;4992529;28;20366;-71
2021/09/18 10:36:12;;;;;;;5.55;3.15;;;;;;;34.65;32.65;100071.88;4974539;28;20030;-72
2021/09/18 10:38:49;;;;;;;5.35;3.38;;;;;;;34.73;33.35;100066.28;4974626;28;20092;-71
2021/09/18 10:41:20;;;;;;;6.25;3.30;;;;;;;34.18;33.26;100068.09;4974797;28;20072;-73
2021/09/18 10:43:54;;;;;;;6.22;3.17;;;;;;;34.11;35.58;100067.34;4975615;28;20437;-73
2021/09/18 10:46:41;;;;;;;5.95;3.05;;;;;;;33.96;33.65;100071.84;4974781;28;20042;-72
2021/09/18 10:49:37;;;;;;;5.20;3.00;;;;;;;34.31;32.45;100063.34;4974807;28;20021;-72
2021/09/18 10:52:22;;;;;;;5.45;3.33;;;;;;;34.09;32.11;100069.16;4974654;28;20030;-71
2021/09/18 10:55:05;;;;;;;5.13;2.53;;;;;;;33.78;32.28;100068.19;4974481;28;20086;-70
2021/09/18 10:57:42;;;;;;;5.15;3.28;;;;;;;34.43;31.79;100054.63;4974956;28;20074;-72
2021/09/18 11:00:19;;;;;;;6.85;2.90;;;;;;;34.46;31.83;100016.81;4974392;28;20125;-72
2021/09/18 11:02:53;;;;;;;7.22;2.83;;;;;;;34.78;30.31;100054.69;4974377;28;20088;-71
2021/09/18 11:05:27;;;;;;;5.70;3.03;;;;;;;34.68;30.34;100062.13;4974282;28;20493;-70
2021/09/18 11:08:02;;;;;;;4.97;2.55;;;;;;;34.39;30.31;100052.78;4974726;28;20470;-72
2021/09/18 11:10:27;;;;;;;8.80;2.75;;;;;;;34.63;30.18;100048.50;4974457;28;20061;-72
2021/09/18 11:13:08;;;;;;;8.15;3.13;;;;;;;34.45;29.93;100047.00;4974558;28;20057;-70
2021/09/18 11:15:57;;;;;;;9.50;2.97;;;;;;;34.60;28.34;100046.69;4974124;28;20066;-71
2021/09/18 11:18:43;;;;;;;7.00;3.05;;;;;;;34.63;28.29;100045.63;4974203;28;20080;-71
2021/09/18 11:21:24;;;;;;;5.90;2.33;;;;;;;34.99;27.93;100034.09;4974729;28;20129;-71
2021/09/18 11:24:00;;;;;;;7.97;3.28;;;;;;;34.38;29.93;100039.66;4974277;28;20061;-72
2021/09/18 11:26:40;;;;;;;6.70;2.78;;;;;;;34.34;30.10;100021.84;4974694;28;20377;-71
2021/09/18 11:29:09;;;;;;;10.00;3.47;;;;;;;34.44;30.87;100041.75;4973851;28;20036;-72
2021/09/18 11:31:36;;;;;;;10.18;3.05;;;;;;;34.60;30.33;100035.13;4973868;28;20045;-71
2021/09/18 11:34:03;;;;;;;9.68;2.60;;;;;;;34.14;28.92;100043.19;4974844;28;20377;-70
2021/09/18 11:36:42;;;;;;;8.77;2.72;;;;;;;34.24;28.78;100035.00;4973683;28;20107;-72
2021/09/18 11:39:08;;;;;;;10.93;2.30;;;;;;;34.43;28.49;100026.53;4973596;28;20136;-72
2021/09/18 11:41:35;;;;;;;8.95;2.95;;;;;;;33.82;29.32;100031.19;4973775;28;20501;-70